Terminal Aerodrome Forecast
Issued by NWS

Home | Current Version | Previous Version | Graphics & Text | Print | Product List | Glossary On
Versions: 1 2 3 4 5 6 7 8 9 10 11 12 13 14
769
FTUS43 KMPX 181121
TAFRNH
TAF
KRNH 181121Z 1812/1912 27005KT P6SM SKC
     FM181900 24005KT P6SM SCT200
     FM190000 VRB02KT P6SM SCT200=

USA.gov is the U.S. government's official web portal to all federal, state and local government web resources and services.